Data for 03/09/2013

Time Sea-Level Adjusted Pressure Absolute Pressure Temperature Relative Humidity Dew Point   
(mb) (inHg) (mb) (inHg) (C) (F) (%) (C) (F)
00:05 1015 29.97 844 24.92 -1.9 28.6 71 -6.5 20.3
00:10 1015 29.97 844 24.92 -1.8 28.7 70 -6.6 20.2
00:15 1015 29.97 844 24.92 -1.9 28.7 70 -6.6 20.1
00:20 1015 29.97 844 24.92 -2 28.4 70 -6.8 19.8
00:25 1015 29.97 844 24.92 -2.2 28 71 -6.8 19.8
00:30 1015 29.97 844 24.92 -2.2 28 70 -7 19.3
00:35 1015 29.97 844 24.92 -2.1 28.2 69 -7 19.3
00:40 1015 29.97 844 24.92 -2 28.4 69 -7 19.4
00:45 1015 29.97 844 24.92 -1.6 29.1 67 -6.9 19.6
00:50 1015 29.97 844 24.92 -1.5 29.4 67 -6.8 19.8
00:55 1015 29.97 844 24.92 -1.9 28.6 69 -6.8 19.8
01:00 1015 29.97 844 24.92 -2.6 27.3 72 -7 19.5
01:05 1015 29.97 844 24.92 -2.9 26.8 73 -7 19.3
01:10 1015 29.97 844 24.92 -2.3 27.8 69 -7.2 19
01:15 1015 29.97 844 24.92 -2.1 28.2 69 -7.1 19.2
01:20 1015 29.97 844 24.92 -2.4 27.6 70 -7.1 19.1
01:25 1015 29.97 844 24.92 -2.7 27.1 71 -7.3 18.9
01:30 1015 29.97 844 24.92 -2.9 26.7 72 -7.3 18.8
01:35 1015 29.97 844 24.92 -3.2 26.3 73 -7.4 18.7
01:40 1015 29.97 844 24.92 -3.4 25.8 74 -7.4 18.8
01:45 1015 29.97 844 24.92 -3.7 25.4 75 -7.5 18.5
01:50 1015 29.97 844 24.92 -3.9 24.9 75 -7.7 18.1
01:55 1015 29.97 844 24.92 -4 24.8 75 -7.8 17.9
02:00 1015 29.97 845 24.95 -3.5 25.7 73 -7.6 18.2
02:05 1015 29.97 845 24.95 -3.3 26.1 73 -7.5 18.4
02:10 1015 29.97 845 24.95 -3 26.5 71 -7.5 18.5
02:15 1015 29.97 845 24.95 -3 26.6 71 -7.5 18.5
02:20 1015 29.97 845 24.95 -3 26.5 72 -7.4 18.7
02:25 1016 30 845 24.95 -3.1 26.5 73 -7.3 18.8
02:30 1016 30 845 24.95 -3.1 26.3 73 -7.4 18.7
02:35 1016 30 845 24.95 -3.2 26.3 72 -7.5 18.5
02:40 1016 30 845 24.95 -3.1 26.4 71 -7.7 18.2
02:45 1016 30 845 24.95 -2.9 26.8 70 -7.6 18.3
02:50 1016 30 845 24.95 -3 26.7 70 -7.7 18.2
02:55 1016 30 845 24.95 -3.2 26.2 73 -7.4 18.6
03:00 1016 30 845 24.95 -3.6 25.6 72 -7.8 17.9
03:05 1016 30 845 24.95 -3.3 26 72 -7.7 18.2
03:10 1016 30 845 24.95 -3.4 25.9 72 -7.7 18.1
03:15 1016 30 845 24.95 -3.5 25.7 72 -7.8 17.9
03:20 1016 30 845 24.95 -3.5 25.6 72 -7.8 17.9
03:25 1016 30 845 24.95 -3.5 25.7 72 -7.8 17.9
03:30 1016 30 845 24.95 -3.3 26 71 -7.8 17.9
03:35 1016 30 845 24.95 -3.1 26.5 71 -7.6 18.2
03:40 1016 30 845 24.95 -3.4 25.9 72 -7.8 18
03:45 1016 30 845 24.95 -4.1 24.6 75 -7.9 17.7
03:50 1016 30 845 24.95 -4.3 24.2 75 -8.2 17.3
03:55 1016 30 845 24.95 -4.3 24.3 75 -8.1 17.4
04:00 1016 30 845 24.95 -3.8 25.2 75 -7.6 18.3
04:05 1016 30 845 24.95 -3.6 25.5 73 -7.7 18.2
04:10 1016 30 845 24.95 -3.9 24.9 74 -7.9 17.8
04:15 1016 30 845 24.95 -4.2 24.5 75 -8 17.6
04:20 1016 30 845 24.95 -3.8 25.1 72 -8.2 17.2
04:25 1016 30 845 24.95 -3.6 25.5 72 -8 17.6
04:30 1016 30 845 24.95 -3.5 25.6 71 -8 17.5
04:35 1016 30 845 24.95 -3.7 25.3 72 -8.1 17.5
04:40 1016 30 845 24.95 -4.1 24.6 73 -8.3 17.1
04:45 1016 30 845 24.95 -4 24.7 70 -8.7 16.3
04:50 1016 30 845 24.95 -4.2 24.5 70 -8.9 16
04:55 1016 30 845 24.95 -4 24.9 68 -9.1 15.7
05:00 1016 30 845 24.95 -3.8 25.1 68 -8.9 16
05:05 1016 30 846 24.98 -3.7 25.3 68 -8.9 16.1
05:10 1016 30 846 24.98 -3.6 25.6 66 -9 15.8
05:15 1016 30 846 24.98 -3.8 25.1 68 -9 15.9
05:20 1016 30 846 24.98 -3.8 25.1 68 -9 15.9
05:25 1017 30.03 846 24.98 -3.6 25.6 66 -9 15.8
05:30 1017 30.03 846 24.98 -3.8 25.2 66 -9.2 15.4
05:35 1017 30.03 846 24.98 -4.4 24 69 -9.3 15.3
05:40 1017 30.03 846 24.98 -4.3 24.3 67 -9.5 14.8
05:45 1017 30.03 846 24.98 -4.3 24.2 67 -9.6 14.7
05:50 1017 30.03 846 24.98 -4 24.8 65 -9.7 14.5
05:55 1017 30.03 846 24.98 -4 24.9 64 -9.8 14.4
06:00 1017 30.03 846 24.98 -4.2 24.5 64 -9.9 14.1
06:05 1017 30.03 846 24.98 -4.4 24.1 64 -10.1 13.8
06:10 1017 30.03 846 24.98 -4.1 24.5 65 -9.8 14.3
06:15 1017 30.03 846 24.98 -4 24.9 63 -9.9 14.1
06:20 1017 30.03 846 24.98 -3.6 25.5 62 -9.8 14.3
06:25 1017 30.03 846 24.98 -3.2 26.2 61 -9.7 14.5
06:30 1017 30.03 846 24.98 -3.7 25.3 62 -10 14.1
06:35 1017 30.03 846 24.98 -4.3 24.3 63 -10.2 13.7
06:40 1017 30.03 846 24.98 -4.3 24.2 63 -10.3 13.5
06:45 1017 30.03 846 24.98 -4 24.8 63 -10 13.9
06:50 1017 30.03 847 25.01 -3.9 25.1 63 -10 14
06:55 1017 30.03 847 25.01 -4.2 24.5 63 -10.2 13.7
07:00 1017 30.03 847 25.01 -4.6 23.7 65 -10.3 13.5
07:05 1018 30.06 847 25.01 -5 23 66 -10.4 13.2
07:10 1018 30.06 847 25.01 -5.1 22.9 66 -10.4 13.2
07:15 1018 30.06 847 25.01 -5.2 22.6 68 -10.2 13.6
07:20 1018 30.06 847 25.01 -5.2 22.7 68 -10.1 13.8
07:25 1018 30.06 847 25.01 -4.8 23.4 67 -10 13.9
07:30 1018 30.06 847 25.01 -4.2 24.5 65 -9.8 14.3
07:35 1018 30.06 847 25.01 -3.8 25.1 64 -9.6 14.8
07:40 1018 30.06 847 25.01 -3.7 25.4 64 -9.6 14.8
07:45 1018 30.06 847 25.01 -3.6 25.4 63 -9.7 14.5
07:50 1018 30.06 847 25.01 -4 24.9 63 -10 13.9
07:55 1018 30.06 847 25.01 -4.2 24.4 64 -10.1 13.8
08:00 1018 30.06 847 25.01 -4.4 24 64 -10.3 13.4
08:05 1018 30.06 847 25.01 -4.4 24.1 62 -10.5 13.1
08:10 1018 30.06 847 25.01 -4.5 23.8 64 -10.4 13.3
08:15 1018 30.06 848 25.04 -4.5 23.8 63 -10.6 12.9
08:20 1018 30.06 848 25.04 -4.5 23.9 62 -10.7 12.7
08:25 1018 30.06 848 25.04 -4.6 23.8 62 -10.8 12.5
08:30 1018 30.06 848 25.04 -4.7 23.5 63 -10.7 12.7
08:35 1019 30.09 848 25.04 -5 23 64 -10.7 12.7
08:40 1019 30.09 848 25.04 -5.1 22.8 65 -10.7 12.7
08:45 1019 30.09 848 25.04 -4.9 23.2 64 -10.7 12.8
08:50 1019 30.09 848 25.04 -4.6 23.8 62 -10.8 12.5
08:55 1019 30.09 848 25.04 -4.4 24.1 62 -10.6 13
09:00 1019 30.09 848 25.04 -4 24.7 60 -10.6 12.8
09:05 1019 30.09 848 25.04 -3.7 25.3 61 -10.3 13.5
09:10 1019 30.09 848 25.04 -3.7 25.4 61 -10.1 13.9
09:15 1019 30.09 848 25.04 -3.6 25.6 62 -9.9 14.2
09:20 1019 30.09 848 25.04 -3 26.6 60 -9.7 14.5
09:25 1019 30.09 849 25.07 -2.5 27.5 59 -9.4 15
09:30 1019 30.09 849 25.07 -2.3 27.8 59 -9.4 15.1
09:35 1020 30.12 849 25.07 -1.6 29.2 56 -9.1 15.6
09:40 1020 30.12 849 25.07 -1.3 29.6 57 -8.7 16.4
09:45 1020 30.12 849 25.07 -2 28.5 60 -8.7 16.3
09:50 1020 30.12 849 25.07 -2.1 28.1 60 -8.8 16.1
09:55 1020 30.12 849 25.07 -2.3 27.8 62 -8.6 16.5
10:00 1020 30.12 849 25.07 -1.9 28.6 59 -8.8 16.2
10:05 1020 30.12 849 25.07 -1.1 30.1 57 -8.5 16.7
10:10 1020 30.12 849 25.07 -0.9 30.4 60 -7.6 18.3
10:15 1020 30.12 849 25.07 -1.9 28.6 63 -8 17.6
10:20 1020 30.12 850 25.1 -1.7 28.9 62 -8.1 17.3
10:25 1020 30.12 850 25.1 -2 28.5 62 -8.2 17.2
10:30 1021 30.15 850 25.1 -1.8 28.7 62 -8.2 17.2
10:35 1021 30.15 850 25.1 -2 28.3 64 -7.9 17.7
10:40 1021 30.15 850 25.1 -1.9 28.5 63 -8.1 17.5
10:45 1021 30.15 850 25.1 -2 28.3 64 -7.9 17.8
10:50 1021 30.15 850 25.1 -2 28.5 62 -8.2 17.2
10:55 1021 30.15 850 25.1 -1.3 29.6 58 -8.5 16.7
11:00 1021 30.15 850 25.1 -0.8 30.5 58 -8.1 17.4
11:05 1021 30.15 850 25.1 -0.6 31 57 -8 17.5
11:10 1021 30.15 850 25.1 -0.7 30.8 55 -8.6 16.6
11:15 1021 30.15 850 25.1 -0.7 30.8 56 -8.3 17.1
11:20 1021 30.15 850 25.1 -0.9 30.3 59 -8 17.5
11:25 1021 30.15 850 25.1 -0.7 30.8 56 -8.4 17
11:30 1021 30.15 850 25.1 -0.4 31.2 56 -8.3 17.1
11:35 1021 30.15 850 25.1 0.1 32.2 52 -8.6 16.6
11:40 1021 30.15 850 25.1 0.4 32.7 52 -8.3 17.1
11:45 1021 30.15 850 25.1 0.3 32.5 52 -8.4 16.9
11:50 1021 30.15 850 25.1 0.5 32.9 50 -8.7 16.3
11:55 1021 30.15 850 25.1 0.6 33.1 51 -8.5 16.7
12:00 1021 30.15 851 25.13 0.1 32.2 52 -8.7 16.4
12:05 1021 30.15 851 25.13 0.1 32.2 51 -8.9 15.9
12:10 1021 30.15 851 25.13 -0 31.9 50 -9.2 15.5
12:15 1021 30.15 851 25.13 0.2 32.4 50 -9 15.9
12:20 1021 30.15 851 25.13 0.2 32.3 51 -8.8 16.1
12:25 1021 30.15 851 25.13 0.1 32.2 50 -9.1 15.6
12:30 1021 30.15 851 25.13 0.1 32.2 49 -9.4 15.1
12:35 1021 30.15 851 25.13 0.5 32.9 47 -9.5 14.9
12:40 1021 30.15 851 25.13 0.4 32.6 49 -9.1 15.7
12:45 1021 30.15 851 25.13 0.6 33.1 48 -9.3 15.2
12:50 1021 30.15 851 25.13 1.3 34.4 46 -8.9 15.9
12:55 1021 30.15 851 25.13 0.8 33.4 49 -8.7 16.4
13:00 1021 30.15 851 25.13 0.9 33.7 49 -8.5 16.7
13:05 1021 30.15 851 25.13 0.9 33.6 49 -8.6 16.6
13:10 1021 30.15 850 25.1 0.9 33.7 50 -8.4 16.9
13:15 1021 30.15 851 25.13 1.9 35.4 41 -9.8 14.3
13:20 1021 30.15 851 25.13 2.6 36.7 42 -8.9 15.9
13:25 1021 30.15 851 25.13 2.8 37 40 -9.6 14.7
13:30 1021 30.15 851 25.13 3.3 38 40 -9 15.8
13:35 1021 30.15 851 25.13 3.6 38.4 39 -9 15.8
13:40 1021 30.15 851 25.13 3.6 38.4 39 -9.3 15.3
13:45 1021 30.15 851 25.13 3.5 38.3 38 -9.7 14.6
13:50 1021 30.15 851 25.13 3.9 39 38 -9.1 15.6
13:55 1021 30.15 851 25.13 3.2 37.7 40 -9.2 15.5
14:00 1021 30.15 851 25.13 3.6 38.6 39 -9.1 15.7
14:05 1021 30.15 851 25.13 4.1 39.4 36 -9.6 14.6
14:10 1021 30.15 850 25.1 4.4 40 35 -9.6 14.8
14:15 1021 30.15 850 25.1 4.1 39.5 35 -9.8 14.3
14:20 1021 30.15 850 25.1 4.1 39.3 36 -9.8 14.4
14:25 1021 30.15 850 25.1 3.8 38.8 37 -9.7 14.6
14:30 1021 30.15 850 25.1 3.9 39 37 -9.6 14.7
14:35 1021 30.15 850 25.1 3.7 38.7 37 -9.6 14.7
14:40 1021 30.15 851 25.13 3.7 38.7 38 -9.5 14.9
14:45 1021 30.15 851 25.13 3.7 38.7 35 -10.3 13.5
14:50 1021 30.15 851 25.13 3.6 38.5 38 -9.3 15.2
14:55 1021 30.15 851 25.13 3.5 38.3 38 -9.5 14.9
15:00 1021 30.15 851 25.13 4 39.3 37 -9.5 14.9
15:05 1021 30.15 851 25.13 4.1 39.4 36 -9.6 14.8
15:10 1021 30.15 851 25.13 4.2 39.5 37 -9.3 15.2
15:15 1022 30.18 851 25.13 4.6 40.3 35 -9.7 14.5
15:20 1022 30.18 851 25.13 4.9 40.8 36 -9 15.8
15:25 1022 30.18 851 25.13 3.8 38.9 39 -9.1 15.7
15:30 1022 30.18 851 25.13 2.5 36.5 41 -9.6 14.7
15:35 1022 30.18 851 25.13 2.6 36.6 41 -9.3 15.3
15:40 1022 30.18 851 25.13 2.6 36.7 41 -9.2 15.4
15:45 1022 30.18 851 25.13 2.7 36.8 40 -9.6 14.8
15:50 1022 30.18 851 25.13 2.5 36.4 41 -9.4 15
15:55 1022 30.18 851 25.13 2.4 36.3 41 -9.7 14.5
16:00 1022 30.18 851 25.13 2.3 36.2 42 -9.4 15.1
16:05 1022 30.18 851 25.13 2.5 36.6 41 -9.4 15.2
16:10 1022 30.18 851 25.13 2.6 36.6 40 -9.9 14.2
16:15 1022 30.18 851 25.13 2.5 36.5 42 -9.3 15.3
16:20 1022 30.18 851 25.13 2.3 36.2 40 -10 14.1
16:25 1022 30.18 851 25.13 2.6 36.6 42 -9.1 15.6
16:30 1022 30.18 851 25.13 2.3 36.1 42 -9.5 15
16:35 1022 30.18 851 25.13 2.3 36.2 41 -9.7 14.6
16:40 1022 30.18 851 25.13 2.4 36.4 41 -9.7 14.6
16:45 1022 30.18 851 25.13 2.4 36.4 40 -9.7 14.6
16:50 1022 30.18 851 25.13 2.9 37.2 40 -9.5 14.8
16:55 1022 30.18 851 25.13 3.1 37.6 39 -9.7 14.6
17:00 1022 30.18 851 25.13 3.1 37.6 40 -9.3 15.2
17:05 1022 30.18 851 25.13 3 37.5 40 -9.2 15.4
17:10 1022 30.18 851 25.13 3.1 37.6 40 -9.3 15.3
17:15 1022 30.18 851 25.13 3.3 37.9 39 -9.5 14.9
17:20 1022 30.18 851 25.13 2.7 36.9 41 -9.3 15.3
17:25 1022 30.18 851 25.13 2.6 36.7 40 -9.6 14.7
17:30 1022 30.18 851 25.13 2.9 37.3 40 -9.4 15.2
17:35 1022 30.18 851 25.13 2.9 37.2 39 -9.6 14.7
17:40 1022 30.18 851 25.13 3 37.3 40 -9.5 14.9
17:45 1022 30.18 852 25.16 2.8 37.1 42 -8.8 16.1
17:50 1022 30.18 852 25.16 2.7 36.9 40 -9.6 14.6
17:55 1022 30.18 852 25.16 2.6 36.8 41 -9.4 15.1
18:00 1022 30.18 852 25.16 2.8 37.1 41 -9.1 15.7
18:05 1022 30.18 852 25.16 2.8 37 40 -9.7 14.6
18:10 1022 30.18 852 25.16 3 37.4 40 -9.5 15
18:15 1022 30.18 852 25.16 2.7 36.9 41 -9.3 15.2
18:20 1022 30.18 852 25.16 2.8 37.1 40 -9.5 15
18:25 1022 30.18 852 25.16 2.7 36.9 41 -9.2 15.5
18:30 1022 30.18 852 25.16 2.8 37 40 -9.4 15
18:35 1022 30.18 852 25.16 2.7 36.9 40 -9.5 15
18:40 1022 30.18 852 25.16 2.8 37 42 -8.8 16.1
18:45 1022 30.18 852 25.16 2.8 37 42 -8.8 16.2
18:50 1023 30.21 852 25.16 2.6 36.7 43 -8.8 16.2
18:55 1023 30.21 852 25.16 2.4 36.4 44 -8.7 16.3
19:00 1023 30.21 852 25.16 2.3 36.2 43 -9 15.8
19:05 1023 30.21 852 25.16 2.1 35.8 43 -9.3 15.2
19:10 1023 30.21 852 25.16 2.1 35.8 43 -9.2 15.4
19:15 1023 30.21 852 25.16 2.2 35.9 43 -9.3 15.3
19:20 1023 30.21 852 25.16 2.1 35.8 43 -9.1 15.5
19:25 1023 30.21 852 25.16 2 35.6 43 -9.3 15.2
19:30 1023 30.21 852 25.16 1.9 35.4 44 -9.2 15.4
19:35 1023 30.21 852 25.16 1.8 35.3 44 -9.1 15.7
19:40 1023 30.21 852 25.16 1.6 35 46 -8.8 16.2
19:45 1023 30.21 852 25.16 1.3 34.4 47 -8.7 16.3
19:50 1023 30.21 852 25.16 1 33.9 48 -8.8 16.2
19:55 1023 30.21 852 25.16 0.7 33.3 49 -8.7 16.4
20:00 1023 30.21 852 25.16 0.4 32.7 50 -8.8 16.2
20:05 1023 30.21 852 25.16 0.1 32.2 52 -8.7 16.3
20:10 1023 30.21 852 25.16 -0.2 31.6 52 -8.8 16.1
20:15 1023 30.21 852 25.16 -0.4 31.4 52 -9 15.9
20:20 1023 30.21 852 25.16 -0.4 31.3 53 -8.9 16
20:25 1023 30.21 852 25.16 -0.5 31.1 52 -9.1 15.6
20:30 1023 30.21 853 25.19 -0.5 31.1 52 -9.1 15.6
20:35 1023 30.21 853 25.19 -0.5 31.1 53 -8.9 16
20:40 1023 30.21 853 25.19 -0.7 30.8 54 -9 15.9
20:45 1023 30.21 853 25.19 -1 30.3 56 -8.6 16.5
20:50 1023 30.21 853 25.19 -1.3 29.7 56 -8.9 16
20:55 1023 30.21 853 25.19 -1.2 29.8 55 -9.1 15.7
21:00 1023 30.21 853 25.19 -1.2 29.8 56 -9 15.9
21:05 1023 30.21 853 25.19 -1.2 29.8 56 -9 15.8
21:10 1023 30.21 853 25.19 -1.2 29.8 56 -8.9 16
21:15 1023 30.21 853 25.19 -1.2 29.9 56 -8.8 16.1
21:20 1023 30.21 853 25.19 -1.2 29.9 55 -9.1 15.7
21:25 1023 30.21 853 25.19 -1 30.2 54 -9.3 15.3
21:30 1023 30.21 853 25.19 -0.8 30.6 53 -9.2 15.5
21:35 1024 30.24 853 25.19 -0.8 30.5 53 -9.3 15.3
21:40 1024 30.24 853 25.19 -0.7 30.7 52 -9.5 14.9
21:45 1024 30.24 853 25.19 -0.7 30.7 53 -9.3 15.3
21:50 1024 30.24 853 25.19 -0.8 30.6 53 -9.2 15.5
21:55 1024 30.24 853 25.19 -0.9 30.4 53 -9.3 15.3
22:00 1024 30.24 853 25.19 -1 30.3 53 -9.3 15.2
22:05 1024 30.24 853 25.19 -1 30.3 53 -9.4 15.2
22:10 1024 30.24 853 25.19 -1 30.2 53 -9.3 15.2
22:15 1024 30.24 853 25.19 -1.1 30 53 -9.4 15.1
22:20 1024 30.24 853 25.19 -1.1 30 53 -9.6 14.8
22:25 1024 30.24 853 25.19 -1 30.2 53 -9.5 14.9
22:30 1024 30.24 853 25.19 -1.1 30.1 53 -9.5 15
22:35 1024 30.24 853 25.19 -1.3 29.6 55 -9.4 15.1
22:40 1024 30.24 853 25.19 -1.5 29.4 54 -9.6 14.7
22:45 1024 30.24 853 25.19 -1.5 29.3 55 -9.5 15
22:50 1024 30.24 853 25.19 -1.6 29.2 55 -9.6 14.8
22:55 1024 30.24 853 25.19 -1.4 29.4 53 -9.8 14.3
23:00 1024 30.24 853 25.19 -1.2 29.8 54 -9.4 15.1
23:05 1024 30.24 853 25.19 -1.4 29.4 54 -9.6 14.7
23:10 1024 30.24 853 25.19 -1.5 29.3 55 -9.5 14.9
23:15 1024 30.24 854 25.22 -1.8 28.8 55 -9.6 14.7
23:20 1024 30.24 854 25.22 -1.7 28.9 54 -9.8 14.4
23:25 1024 30.24 854 25.22 -1.7 28.9 56 -9.4 15
23:30 1024 30.24 853 25.19 -1.9 28.6 55 -9.8 14.4
23:35 1024 30.24 853 25.19 -1.8 28.8 55 -9.7 14.5
23:40 1024 30.24 853 25.19 -1.8 28.8 55 -9.7 14.5
23:45 1024 30.24 854 25.22 -1.9 28.7 56 -9.6 14.7
23:50 1024 30.24 854 25.22 -2 28.4 56 -9.6 14.8
23:55 1024 30.24 854 25.22 -2.1 28.2 56 -9.7 14.5
24:00 1024 30.24 853 25.19 -2.1 28.1 57 -9.6 14.8